Time;durP1;ratioP1;P1;durP2;ratioP2;P2;SDS_P1;SDS_P2;PMS_P1;PMS_P2;Temp;Humidity;BMP_temperature;BMP_pressure;BME280_temperature;BME280_humidity;BME280_pressure;Samples;Min_cycle;Max_cycle;Signal;HPM_P1;HPM_P2
2022/06/01 00:00:33;;;;;;;2.10;1.70;;;22.60;52.90;;;;;;5071788;28;20387;-65
2022/06/01 00:02:59;;;;;;;2.07;1.73;;;22.50;52.70;;;;;;5072673;28;20812;-64
2022/06/01 00:05:25;;;;;;;2.30;2.05;;;22.50;52.80;;;;;;5072999;28;20901;-65
2022/06/01 00:07:51;;;;;;;2.05;1.77;;;22.50;52.50;;;;;;5071820;28;20448;-65
2022/06/01 00:10:17;;;;;;;2.17;1.90;;;22.50;52.60;;;;;;5072784;28;20415;-65
2022/06/01 00:12:43;;;;;;;2.63;1.80;;;22.50;52.60;;;;;;5072667;28;20423;-64
2022/06/01 00:15:11;;;;;;;2.70;2.03;;;22.50;52.70;;;;;;5072668;28;20419;-65
2022/06/01 00:17:37;;;;;;;2.33;2.10;;;22.50;52.80;;;;;;5072788;28;20384;-65
2022/06/01 00:20:04;;;;;;;1.92;1.73;;;22.50;52.90;;;;;;5072774;28;20387;-65
2022/06/01 00:22:29;;;;;;;2.90;1.70;;;22.50;52.90;;;;;;5071342;28;20457;-65
2022/06/01 00:24:56;;;;;;;2.63;1.87;;;22.50;52.90;;;;;;5072241;28;20380;-64
2022/06/01 00:27:22;;;;;;;1.90;1.67;;;22.50;52.80;;;;;;5072490;28;20423;-65
2022/06/01 00:29:47;;;;;;;2.13;1.70;;;22.50;52.70;;;;;;5071383;28;20392;-65
2022/06/01 00:32:14;;;;;;;2.33;1.60;;;22.50;52.70;;;;;;5072413;28;20886;-65
2022/06/01 00:34:41;;;;;;;2.28;1.83;;;22.50;52.60;;;;;;5071179;28;20752;-65
2022/06/01 00:37:08;;;;;;;2.50;1.70;;;22.40;52.50;;;;;;5071959;28;20391;-64
2022/06/01 00:39:35;;;;;;;1.90;1.67;;;22.50;52.50;;;;;;5072337;28;20392;-65
2022/06/01 00:42:17;;;;;;;3.25;1.67;;;22.40;52.50;;;;;;5072184;28;20392;-65
2022/06/01 00:44:44;;;;;;;2.38;1.77;;;22.40;52.50;;;;;;5072342;28;20395;-65
2022/06/01 00:47:10;;;;;;;2.08;1.55;;;22.40;52.50;;;;;;5071868;28;20464;-65
2022/06/01 00:49:40;;;;;;;1.77;1.60;;;22.40;52.30;;;;;;5072144;28;20384;-64
2022/06/01 00:52:07;;;;;;;1.85;1.50;;;22.40;52.40;;;;;;5072022;28;20387;-65
2022/06/01 00:54:33;;;;;;;2.25;1.50;;;22.40;52.30;;;;;;5072108;28;20391;-65
2022/06/01 00:57:03;;;;;;;2.28;1.52;;;22.40;52.40;;;;;;5071630;28;20492;-64
2022/06/01 00:59:33;;;;;;;2.60;1.60;;;22.40;52.50;;;;;;5071910;28;20384;-65
2022/06/01 01:01:59;;;;;;;1.90;1.70;;;22.40;52.50;;;;;;5071997;28;20395;-65
2022/06/01 01:04:26;;;;;;;1.95;1.58;;;22.30;52.30;;;;;;5072000;28;20372;-65
2022/06/01 01:06:52;;;;;;;2.08;1.60;;;22.30;52.40;;;;;;5071617;28;20414;-64
2022/06/01 01:09:18;;;;;;;1.70;1.20;;;22.30;52.50;;;;;;5071577;28;20387;-65
2022/06/01 01:11:51;;;;;;;2.22;1.50;;;22.30;52.40;;;;;;5071647;28;20396;-65
2022/06/01 01:14:21;;;;;;;1.60;1.50;;;22.40;52.30;;;;;;5070470;28;20875;-65
2022/06/01 01:16:48;;;;;;;2.10;1.70;;;22.30;52.30;;;;;;5071586;28;20403;-64
2022/06/01 01:19:25;;;;;;;2.33;1.50;;;22.30;52.20;;;;;;5069657;28;20380;-65
2022/06/01 01:22:01;;;;;;;1.98;1.60;;;22.30;52.30;;;;;;5071753;28;20387;-65
2022/06/01 01:25:08;;;;;;;1.70;1.40;;;22.30;52.30;;;;;;5071643;28;20383;-65
2022/06/01 01:27:34;;;;;;;1.98;1.67;;;22.30;52.30;;;;;;5057077;28;20503;-65
2022/06/01 01:29:59;;;;;;;1.70;1.50;;;22.30;52.20;;;;;;5071652;28;20475;-65
2022/06/01 01:32:25;;;;;;;2.47;1.60;;;22.30;52.20;;;;;;5071547;28;20826;-65
2022/06/01 01:34:51;;;;;;;2.00;1.70;;;22.30;52.20;;;;;;5071107;28;20466;-64
2022/06/01 01:37:26;;;;;;;3.55;1.70;;;22.30;52.20;;;;;;5071275;28;20391;-65
2022/06/01 01:39:54;;;;;;;1.73;1.52;;;22.30;52.30;;;;;;5071479;28;20389;-64
2022/06/01 01:42:19;;;;;;;1.77;1.67;;;22.20;52.20;;;;;;5071439;28;20408;-65
2022/06/01 01:44:55;;;;;;;1.85;1.70;;;22.20;52.20;;;;;;5071452;28;20387;-64
2022/06/01 01:47:21;;;;;;;1.43;1.30;;;22.30;52.20;;;;;;5071099;28;20420;-64
2022/06/01 01:49:47;;;;;;;2.07;1.43;;;22.30;52.30;;;;;;5071443;28;20445;-65
2022/06/01 01:52:15;;;;;;;1.70;1.60;;;22.30;52.20;;;;;;5071129;28;20412;-65
2022/06/01 01:54:45;;;;;;;1.58;1.35;;;22.20;52.10;;;;;;5071351;28;20891;-64
2022/06/01 01:57:35;;;;;;;2.30;1.40;;;22.30;52.20;;;;;;5070792;28;20388;-64
2022/06/01 02:00:06;;;;;;;1.40;1.25;;;22.20;52.20;;;;;;5071337;28;20376;-64
2022/06/01 02:02:46;;;;;;;1.67;1.50;;;22.20;52.00;;;;;;5071217;28;20391;-64
2022/06/01 02:08:34;;;;;;;2.25;1.60;;;22.20;52.00;;;;;;5071545;28;20401;-64
2022/06/01 02:14:21;;;;;;;1.88;1.60;;;22.20;52.00;;;;;;5071123;28;20441;-64
2022/06/01 02:17:02;;;;;;;1.83;1.60;;;22.20;52.00;;;;;;5070363;28;20403;-64
2022/06/01 02:19:39;;;;;;;1.63;1.50;;;22.20;52.10;;;;;;5070979;28;20380;-64
2022/06/01 02:22:06;;;;;;;1.92;1.52;;;22.20;52.00;;;;;;5071133;28;20398;-65
2022/06/01 02:24:32;;;;;;;2.20;1.67;;;22.20;52.70;;;;;;5071008;28;20461;-64
2022/06/01 02:26:59;;;;;;;2.20;1.67;;;22.10;52.00;;;;;;5070741;28;20994;-64
2022/06/01 02:29:44;;;;;;;1.55;1.20;;;22.20;52.00;;;;;;5070787;28;20384;-65
2022/06/01 02:32:11;;;;;;;1.63;1.30;;;22.20;51.90;;;;;;5073441;28;20487;-65
2022/06/01 02:34:38;;;;;;;1.50;1.40;;;22.20;52.00;;;;;;5073580;28;20390;-64
2022/06/01 02:37:06;;;;;;;1.50;1.40;;;22.20;52.10;;;;;;5074331;28;20388;-64
2022/06/01 02:39:34;;;;;;;1.75;1.30;;;22.10;52.00;;;;;;5073363;28;20391;-64
2022/06/01 02:42:25;;;;;;;1.70;1.52;;;22.10;52.00;;;;;;5074631;28;20400;-65
2022/06/01 02:44:56;;;;;;;2.40;1.30;;;22.10;52.00;;;;;;5074473;28;20434;-65
2022/06/01 02:47:23;;;;;;;1.75;1.50;;;22.10;52.00;;;;;;5074203;28;20778;-64
2022/06/01 02:49:49;;;;;;;2.33;1.50;;;22.10;51.80;;;;;;5074366;28;20384;-64
2022/06/01 02:52:15;;;;;;;1.88;1.50;;;22.10;51.90;;;;;;5074272;28;20399;-64
2022/06/01 02:54:40;;;;;;;1.60;1.50;;;22.10;51.90;;;;;;5074483;28;20386;-64
2022/06/01 02:57:07;;;;;;;1.90;1.48;;;22.10;51.70;;;;;;5072645;28;20392;-64
2022/06/01 02:59:33;;;;;;;1.63;1.30;;;22.10;51.80;;;;;;5074284;28;20402;-64
2022/06/01 03:02:02;;;;;;;1.55;1.30;;;22.10;51.80;;;;;;5073563;28;20415;-64
2022/06/01 03:04:27;;;;;;;1.35;1.25;;;22.10;51.80;;;;;;5074050;28;21049;-64
2022/06/01 03:06:54;;;;;;;2.72;1.50;;;22.10;51.80;;;;;;5073844;28;20506;-64
2022/06/01 03:09:20;;;;;;;2.30;1.63;;;22.10;51.90;;;;;;5073946;28;20395;-64
2022/06/01 03:11:45;;;;;;;3.42;1.30;;;22.10;53.30;;;;;;5074049;28;20471;-65
2022/06/01 03:14:11;;;;;;;4.60;3.20;;;22.10;53.30;;;;;;5073942;28;20412;-65
2022/06/01 03:16:37;;;;;;;4.35;2.97;;;22.10;54.00;;;;;;5073832;28;20415;-65
2022/06/01 03:19:04;;;;;;;6.68;2.55;;;22.10;53.60;;;;;;5073741;28;20402;-65
2022/06/01 03:21:30;;;;;;;4.50;2.03;;;22.20;55.70;;;;;;5073972;28;20388;-65
2022/06/01 03:23:55;;;;;;;3.92;2.10;;;22.20;55.40;;;;;;5073766;28;20380;-66
2022/06/01 03:26:22;;;;;;;5.20;2.20;;;22.30;55.60;;;;;;5073747;28;20830;-65
2022/06/01 03:28:48;;;;;;;4.45;1.98;;;22.30;55.50;;;;;;5073614;28;20383;-65
2022/06/01 03:31:14;;;;;;;4.20;2.08;;;22.40;55.70;;;;;;5085185;28;20888;-65
2022/06/01 03:33:40;;;;;;;4.15;1.73;;;22.40;55.50;;;;;;5099111;28;20392;-65
2022/06/01 03:36:07;;;;;;;2.60;1.87;;;22.40;55.20;;;;;;5103372;28;20394;-66
2022/06/01 03:38:33;;;;;;;3.22;1.83;;;22.40;55.30;;;;;;5106591;28;20756;-65
2022/06/01 03:40:59;;;;;;;6.47;1.88;;;22.40;55.20;;;;;;5096957;28;20410;-65
2022/06/01 03:43:25;;;;;;;3.47;1.80;;;22.50;55.00;;;;;;5092935;28;20386;-65
2022/06/01 03:45:56;;;;;;;4.38;1.90;;;22.50;55.40;;;;;;5092169;28;20394;-64
2022/06/01 03:48:24;;;;;;;3.70;1.50;;;22.50;55.00;;;;;;5093612;28;20390;-65
2022/06/01 03:50:51;;;;;;;6.68;1.70;;;22.50;55.00;;;;;;5092351;28;20469;-65
2022/06/01 03:53:16;;;;;;;2.63;1.60;;;22.60;55.30;;;;;;5091237;28;20413;-65
2022/06/01 03:55:42;;;;;;;6.43;1.77;;;22.50;55.20;;;;;;5093335;28;20447;-64
2022/06/01 03:58:13;;;;;;;3.77;1.77;;;22.60;55.40;;;;;;5092976;28;20386;-65
2022/06/01 04:00:39;;;;;;;4.60;1.50;;;22.50;54.70;;;;;;5093087;28;20385;-65
2022/06/01 04:03:04;;;;;;;3.50;1.40;;;22.50;54.50;;;;;;5092535;28;20390;-65
2022/06/01 04:05:30;;;;;;;4.90;1.60;;;22.40;54.70;;;;;;5092853;28;20385;-66
2022/06/01 04:07:55;;;;;;;3.87;1.60;;;22.40;54.90;;;;;;5091801;28;20428;-65
2022/06/01 04:10:22;;;;;;;8.02;1.55;;;22.40;54.90;;;;;;5092971;28;20471;-65
2022/06/01 04:12:48;;;;;;;8.82;1.88;;;22.40;54.70;;;;;;5093074;28;20895;-64
2022/06/01 04:15:14;;;;;;;5.05;1.63;;;22.40;54.50;;;;;;5092571;28;20386;-65
2022/06/01 04:17:40;;;;;;;7.53;1.73;;;22.40;54.80;;;;;;5092914;28;20398;-65
2022/06/01 04:20:07;;;;;;;5.77;1.50;;;22.40;54.30;;;;;;5092876;28;20946;-66
2022/06/01 04:22:34;;;;;;;5.70;1.45;;;22.40;53.70;;;;;;5092944;28;20393;-66
2022/06/01 04:24:59;;;;;;;4.68;1.40;;;22.40;53.50;;;;;;5091173;28;20399;-65
2022/06/01 04:27:25;;;;;;;2.77;1.40;;;22.40;53.50;;;;;;5091242;28;20433;-65
2022/06/01 04:29:51;;;;;;;3.35;1.30;;;22.30;53.40;;;;;;5092851;28;20378;-65
2022/06/01 04:32:25;;;;;;;5.27;1.60;;;22.30;53.20;;;;;;5092759;28;20390;-65
2022/06/01 04:34:50;;;;;;;3.00;1.40;;;22.30;53.00;;;;;;5092810;28;20841;-65
2022/06/01 04:37:16;;;;;;;3.47;1.40;;;22.30;52.90;;;;;;5092112;28;20402;-65
2022/06/01 04:39:42;;;;;;;5.03;1.48;;;22.30;53.10;;;;;;5092672;28;20382;-65
2022/06/01 04:42:08;;;;;;;3.67;1.50;;;22.30;53.20;;;;;;5092608;28;20862;-65
2022/06/01 04:44:34;;;;;;;3.90;1.40;;;22.30;53.20;;;;;;5092581;28;20382;-65
2022/06/01 04:46:59;;;;;;;3.80;1.40;;;22.30;53.30;;;;;;5092180;28;20420;-65
2022/06/01 04:49:25;;;;;;;3.60;1.97;;;22.30;53.70;;;;;;5092134;28;20477;-65
2022/06/01 04:51:51;;;;;;;6.72;4.00;;;22.30;54.30;;;;;;5092195;28;20413;-66
2022/06/01 04:54:17;;;;;;;4.90;3.10;;;22.30;55.50;;;;;;5091350;28;20413;-66
2022/06/01 04:56:42;;;;;;;4.30;2.63;;;22.40;55.60;;;;;;5091799;28;20389;-66
2022/06/01 04:59:09;;;;;;;4.57;2.90;;;22.40;55.40;;;;;;5091681;28;20439;-65
2022/06/01 05:01:35;;;;;;;4.82;2.70;;;22.40;55.60;;;;;;5092070;28;20720;-65
2022/06/01 05:04:01;;;;;;;4.55;2.50;;;22.40;55.50;;;;;;5092110;28;20439;-65
2022/06/01 05:06:26;;;;;;;3.50;2.38;;;22.50;55.40;;;;;;5092019;28;20409;-65
2022/06/01 05:08:52;;;;;;;4.28;2.15;;;22.50;56.00;;;;;;5092125;28;20412;-65
2022/06/01 05:11:19;;;;;;;3.63;2.20;;;22.50;55.30;;;;;;5091637;28;20893;-65
2022/06/01 05:13:46;;;;;;;3.08;1.88;;;22.50;55.20;;;;;;5092142;28;20485;-67
2022/06/01 05:16:11;;;;;;;3.92;1.98;;;22.50;55.40;;;;;;5091917;28;20527;-65
2022/06/01 05:18:38;;;;;;;3.50;1.88;;;22.50;55.10;;;;;;5073982;28;20934;-66
2022/06/01 05:21:04;;;;;;;3.83;2.13;;;22.50;55.50;;;;;;5078341;28;20388;-65
2022/06/01 05:23:30;;;;;;;4.23;1.93;;;22.50;55.10;;;;;;5070934;28;20383;-64
2022/06/01 05:25:56;;;;;;;4.07;2.00;;;22.50;55.10;;;;;;5070610;28;20825;-65
2022/06/01 05:28:25;;;;;;;3.25;1.80;;;22.50;55.10;;;;;;5053386;28;20403;-65
2022/06/01 05:30:59;;;;;;;2.67;1.75;;;22.50;55.00;;;;;;5071310;28;20387;-65
2022/06/01 05:33:25;;;;;;;3.10;1.80;;;22.50;54.90;;;;;;5071065;28;20868;-65
2022/06/01 05:35:51;;;;;;;3.63;1.80;;;22.50;54.90;;;;;;5071149;28;20392;-65
2022/06/01 05:38:16;;;;;;;3.00;1.85;;;22.50;54.80;;;;;;5071008;28;20479;-66
2022/06/01 05:40:42;;;;;;;2.15;1.80;;;22.50;54.70;;;;;;5071184;28;20384;-65
2022/06/01 05:43:10;;;;;;;4.20;1.70;;;22.50;54.60;;;;;;5070820;28;20898;-65
2022/06/01 05:45:37;;;;;;;2.38;1.75;;;22.50;54.40;;;;;;5052998;28;20391;-66
2022/06/01 05:48:03;;;;;;;2.42;1.80;;;22.50;54.40;;;;;;5071030;28;20423;-65
2022/06/01 05:50:29;;;;;;;3.13;1.75;;;22.50;54.30;;;;;;5070553;28;20718;-66
2022/06/01 05:52:55;;;;;;;2.57;1.70;;;22.50;54.20;;;;;;5100033;28;20412;-65
2022/06/01 05:55:20;;;;;;;2.95;1.73;;;22.50;54.10;;;;;;5102842;28;20422;-66
2022/06/01 05:57:46;;;;;;;3.43;1.80;;;22.50;54.10;;;;;;5090538;28;20870;-65
2022/06/01 06:00:16;;;;;;;3.15;1.70;;;22.60;54.10;;;;;;5090285;28;20401;-65
2022/06/01 06:02:42;;;;;;;3.53;1.80;;;22.60;54.00;;;;;;5090508;28;20382;-66
2022/06/01 06:07:55;;;;;;;2.47;1.67;;;22.60;53.90;;;;;;5095211;28;20491;-65
2022/06/01 06:10:21;;;;;;;2.20;1.50;;;22.60;53.80;;;;;;5094713;28;20480;-66
2022/06/01 06:12:47;;;;;;;1.92;1.63;;;22.60;53.70;;;;;;5094671;28;20416;-65
2022/06/01 06:15:13;;;;;;;3.42;1.60;;;22.60;53.80;;;;;;5094124;28;20862;-65
2022/06/01 06:17:39;;;;;;;3.42;1.63;;;22.60;53.70;;;;;;5095110;28;20390;-65
2022/06/01 06:20:06;;;;;;;4.15;1.83;;;22.60;53.60;;;;;;5093864;28;20388;-66
2022/06/01 06:22:32;;;;;;;2.30;1.60;;;22.60;53.60;;;;;;5094682;28;20401;-65
2022/06/01 06:24:57;;;;;;;4.07;1.70;;;22.60;53.50;;;;;;5094725;28;20385;-65
2022/06/01 06:27:26;;;;;;;3.50;1.73;;;22.60;53.50;;;;;;5094341;28;20456;-65
2022/06/01 06:29:52;;;;;;;2.10;1.42;;;22.60;53.50;;;;;;5094868;28;20382;-65
2022/06/01 06:32:18;;;;;;;2.70;1.52;;;22.60;53.40;;;;;;5094684;28;20803;-65
2022/06/01 06:34:44;;;;;;;2.78;1.70;;;22.60;53.40;;;;;;5094704;28;20405;-65
2022/06/01 06:37:09;;;;;;;2.10;1.67;;;22.60;53.30;;;;;;5094321;28;20589;-66
2022/06/01 06:39:35;;;;;;;3.00;1.50;;;22.70;53.40;;;;;;5094505;28;20784;-66
2022/06/01 06:42:01;;;;;;;2.97;1.70;;;22.60;53.20;;;;;;5094750;28;20401;-66
2022/06/01 06:44:27;;;;;;;2.35;1.60;;;22.60;53.20;;;;;;5094518;28;20451;-65
2022/06/01 06:46:52;;;;;;;2.28;1.67;;;22.70;53.20;;;;;;5094432;28;20437;-65
2022/06/01 06:49:18;;;;;;;3.70;1.67;;;22.60;53.20;;;;;;5094043;28;20909;-65
2022/06/01 06:51:44;;;;;;;2.57;1.60;;;22.70;53.20;;;;;;5093252;28;20386;-65
2022/06/01 06:54:10;;;;;;;2.85;1.50;;;22.70;53.20;;;;;;5088339;28;20429;-66
2022/06/01 06:56:36;;;;;;;2.70;1.30;;;22.70;53.20;;;;;;5091785;28;20390;-65
2022/06/01 06:59:04;;;;;;;2.20;1.40;;;22.70;53.20;;;;;;5091817;28;20660;-65
2022/06/01 07:01:29;;;;;;;2.38;1.23;;;22.90;53.30;;;;;;5090602;28;20874;-65
2022/06/01 07:03:55;;;;;;;3.33;1.53;;;22.70;53.20;;;;;;5093350;28;20386;-65
2022/06/01 07:06:22;;;;;;;2.92;1.30;;;22.70;53.20;;;;;;5094086;28;20903;-64
2022/06/01 07:08:52;;;;;;;2.88;1.40;;;22.70;53.20;;;;;;5093984;28;20394;-64
2022/06/01 07:11:20;;;;;;;2.77;1.40;;;22.70;53.10;;;;;;5093507;28;20373;-64
2022/06/01 07:13:50;;;;;;;1.92;1.30;;;22.70;53.10;;;;;;5093853;28;20393;-65
2022/06/01 07:16:19;;;;;;;2.35;1.70;;;22.70;53.10;;;;;;5093898;28;20382;-66
2022/06/01 07:18:48;;;;;;;2.00;1.47;;;22.70;53.00;;;;;;5093459;28;20385;-66
2022/06/01 07:21:15;;;;;;;3.75;1.50;;;22.70;53.10;;;;;;5093613;28;20382;-65
2022/06/01 07:23:41;;;;;;;3.30;1.50;;;22.70;53.10;;;;;;5092228;28;20754;-65
2022/06/01 07:26:10;;;;;;;2.60;1.50;;;22.70;53.00;;;;;;5093009;28;20762;-65
2022/06/01 07:28:36;;;;;;;2.00;1.40;;;22.70;53.00;;;;;;5090533;28;20905;-66
2022/06/01 07:31:04;;;;;;;2.10;1.40;;;22.70;53.00;;;;;;5092170;28;20808;-65
2022/06/01 07:33:30;;;;;;;2.63;1.50;;;22.70;53.00;;;;;;5091940;28;20425;-66
2022/06/01 07:35:58;;;;;;;1.87;1.33;;;22.70;53.00;;;;;;5092127;28;21045;-66
2022/06/01 07:44:15;;;;;;;2.70;1.30;;;22.80;53.00;;;;;;5091546;28;20377;-65
2022/06/01 07:46:40;;;;;;;1.52;1.40;;;22.80;53.00;;;;;;5091978;28;20421;-65
2022/06/01 07:49:07;;;;;;;1.60;1.40;;;22.80;52.90;;;;;;5091829;28;20386;-65
2022/06/01 07:51:34;;;;;;;1.30;1.10;;;22.80;52.90;;;;;;5090424;28;20409;-65
2022/06/01 07:54:00;;;;;;;1.40;1.30;;;22.80;52.90;;;;;;5089422;28;20677;-66
2022/06/01 07:56:26;;;;;;;1.65;1.40;;;22.80;52.90;;;;;;5091754;28;20394;-66
2022/06/01 07:58:51;;;;;;;1.80;1.47;;;22.80;52.90;;;;;;5091813;28;20728;-66
2022/06/01 08:01:21;;;;;;;2.10;1.23;;;22.80;52.80;;;;;;5091438;28;20382;-66
2022/06/01 08:03:47;;;;;;;1.83;1.10;;;22.80;52.80;;;;;;5091812;28;20431;-66
2022/06/01 08:06:14;;;;;;;1.50;1.40;;;22.80;52.80;;;;;;5090106;28;20402;-66
2022/06/01 08:08:40;;;;;;;1.60;1.30;;;22.80;52.80;;;;;;5089161;28;20809;-66
2022/06/01 08:11:05;;;;;;;1.70;1.10;;;22.80;52.70;;;;;;5091579;28;20378;-66
2022/06/01 08:13:31;;;;;;;2.27;1.30;;;22.80;52.70;;;;;;5091150;28;20451;-66
2022/06/01 08:15:56;;;;;;;1.60;1.40;;;22.80;52.70;;;;;;5091378;28;20454;-66
2022/06/01 08:18:24;;;;;;;1.90;1.30;;;22.80;52.70;;;;;;5090105;28;20394;-65
2022/06/01 08:20:51;;;;;;;2.33;1.40;;;22.80;52.70;;;;;;5091310;28;20387;-65
2022/06/01 08:23:17;;;;;;;1.80;1.25;;;22.80;52.70;;;;;;5091113;28;20390;-66
2022/06/01 08:25:43;;;;;;;1.77;1.23;;;22.80;52.70;;;;;;5090980;28;20443;-66
2022/06/01 08:28:09;;;;;;;1.90;1.38;;;22.80;52.60;;;;;;5090853;28;20406;-65
2022/06/01 08:30:38;;;;;;;1.42;1.33;;;22.80;52.60;;;;;;5090475;28;20422;-66
2022/06/01 08:33:05;;;;;;;1.77;1.33;;;22.80;52.60;;;;;;5090097;28;20397;-66
2022/06/01 08:35:36;;;;;;;1.70;1.40;;;22.80;52.60;;;;;;5090733;28;20422;-65
2022/06/01 08:38:04;;;;;;;1.90;1.20;;;22.80;52.50;;;;;;5087432;28;20450;-66
2022/06/01 08:40:33;;;;;;;13.35;4.40;;;22.80;52.60;;;;;;5090828;28;20390;-65
2022/06/01 08:43:10;;;;;;;19.88;6.90;;;22.90;53.00;;;;;;5090804;28;20416;-66
2022/06/01 08:45:36;;;;;;;31.55;11.00;;;22.90;53.20;;;;;;5090569;28;20458;-65
2022/06/01 08:48:03;;;;;;;174.57;123.90;;;22.90;53.20;;;;;;5090594;28;20410;-66
2022/06/01 08:50:32;;;;;;;104.30;75.60;;;22.90;53.60;;;;;;5090641;28;20409;-66
2022/06/01 08:53:02;;;;;;;89.30;62.15;;;22.90;53.30;;;;;;5090481;28;20774;-66
2022/06/01 08:55:38;;;;;;;90.03;64.32;;;22.90;53.20;;;;;;5090327;28;20414;-66
2022/06/01 08:58:13;;;;;;;74.75;52.47;;;22.90;53.10;;;;;;5088460;28;20386;-66
2022/06/01 09:00:46;;;;;;;80.00;52.97;;;22.90;53.00;;;;;;5087837;28;20925;-66
2022/06/01 09:03:42;;;;;;;73.43;49.80;;;22.90;53.00;;;;;;5090254;28;20800;-65
2022/06/01 09:06:27;;;;;;;63.95;44.92;;;22.90;52.90;;;;;;5089031;28;20901;-66
2022/06/01 09:09:10;;;;;;;57.00;40.25;;;22.90;52.80;;;;;;5089424;28;20385;-66
2022/06/01 09:11:38;;;;;;;54.70;38.03;;;22.90;52.70;;;;;;5089675;28;20390;-66
2022/06/01 09:14:14;;;;;;;49.65;34.17;;;22.90;52.70;;;;;;5089150;28;20885;-66
2022/06/01 09:16:41;;;;;;;47.28;32.17;;;22.90;52.60;;;;;;5087657;28;20410;-66
2022/06/01 09:19:16;;;;;;;46.22;30.58;;;22.90;52.60;;;;;;5090215;28;20386;-67
2022/06/01 09:24:36;;;;;;;35.13;22.70;;;22.90;52.30;;;;;;5088839;28;20382;-66
2022/06/01 09:27:06;;;;;;;34.43;22.30;;;22.90;52.20;;;;;;5090129;28;20422;-66
2022/06/01 09:29:35;;;;;;;28.92;18.30;;;22.90;52.10;;;;;;5089626;28;21229;-65
2022/06/01 09:32:05;;;;;;;31.30;19.67;;;22.90;52.10;;;;;;5087739;28;20528;-65
2022/06/01 09:34:38;;;;;;;24.75;16.42;;;22.90;52.00;;;;;;5090073;28;20374;-65
2022/06/01 09:37:16;;;;;;;18.90;10.77;;;22.90;51.90;;;;;;5088111;28;20389;-66
2022/06/01 09:39:56;;;;;;;13.48;9.13;;;22.90;51.90;;;;;;5087217;28;20405;-65
2022/06/01 09:42:28;;;;;;;13.40;7.75;;;22.90;51.90;;;;;;5087287;28;20382;-65
2022/06/01 09:44:57;;;;;;;11.27;7.82;;;22.90;51.90;;;;;;5090246;28;20394;-65
2022/06/01 09:47:32;;;;;;;12.07;7.55;;;22.90;51.80;;;;;;5087461;28;20421;-65
2022/06/01 09:49:59;;;;;;;12.50;7.75;;;22.90;51.60;;;;;;5089954;28;20397;-65
2022/06/01 09:52:31;;;;;;;11.93;7.35;;;22.90;51.80;;;;;;5089671;28;20410;-65
2022/06/01 09:55:06;;;;;;;9.63;6.70;;;22.90;51.80;;;;;;5088648;28;20865;-66
2022/06/01 09:57:35;;;;;;;10.75;6.75;;;22.70;51.60;;;;;;5086254;28;20398;-65
2022/06/01 10:06:05;;;;;;;8.05;5.75;;;22.90;51.70;;;;;;5087270;28;20365;-65
2022/06/01 10:06:15;;;;;;;8.50;5.22;;;22.90;51.70;;;;;;5089565;28;20417;-65
2022/06/01 10:08:44;;;;;;;10.63;5.40;;;22.90;51.50;;;;;;5087279;28;20389;-65
2022/06/01 10:11:27;;;;;;;7.00;4.90;;;22.90;51.60;;;;;;5088430;28;20797;-66
2022/06/01 10:14:21;;;;;;;7.22;4.90;;;22.90;51.60;;;;;;5088658;28;20844;-65
2022/06/01 10:17:15;;;;;;;6.60;4.40;;;22.90;51.60;;;;;;5082080;28;20385;-65
2022/06/01 10:20:05;;;;;;;7.85;4.57;;;22.90;51.60;;;;;;5089715;28;20443;-66
2022/06/01 10:22:41;;;;;;;6.25;4.32;;;22.90;51.60;;;;;;5088176;28;20428;-65
2022/06/01 10:25:14;;;;;;;7.20;4.25;;;22.90;51.60;;;;;;5088294;28;20439;-65
2022/06/01 10:28:10;;;;;;;5.60;3.90;;;22.90;51.70;;;;;;5086738;28;20416;-66
2022/06/01 10:30:38;;;;;;;8.20;4.28;;;22.90;51.70;;;;;;5086582;28;20761;-65
2022/06/01 10:33:14;;;;;;;8.55;5.70;;;22.90;52.30;;;;;;5086660;28;20390;-66
2022/06/01 10:35:55;;;;;;;11.25;6.88;;;22.90;53.60;;;;;;5088295;28;20390;-65
2022/06/01 10:38:25;;;;;;;8.10;5.23;;;23.00;55.70;;;;;;5088190;28;20939;-65
2022/06/01 10:41:00;;;;;;;7.05;4.47;;;23.00;55.90;;;;;;5088009;28;21099;-66
2022/06/01 10:43:42;;;;;;;6.90;4.18;;;23.00;54.70;;;;;;5088789;28;20394;-65
2022/06/01 10:46:23;;;;;;;6.55;3.80;;;23.00;53.70;;;;;;5087515;28;20877;-65
2022/06/01 10:49:09;;;;;;;5.07;3.40;;;23.00;53.50;;;;;;5087286;28;20405;-66
2022/06/01 10:51:35;;;;;;;6.40;3.38;;;23.00;53.70;;;;;;5046621;28;20482;-65
2022/06/01 10:54:19;;;;;;;6.57;3.17;;;23.00;53.70;;;;;;5091898;28;20414;-66
2022/06/01 10:56:44;;;;;;;5.63;3.20;;;23.00;53.70;;;;;;5090031;28;20414;-66
2022/06/01 10:59:14;;;;;;;5.77;3.27;;;23.00;53.60;;;;;;5092043;28;20482;-65
2022/06/01 11:02:01;;;;;;;4.45;3.05;;;23.00;53.60;;;;;;5091191;28;20443;-66
2022/06/01 11:04:47;;;;;;;5.07;3.20;;;23.10;53.30;;;;;;5091162;28;20467;-66
2022/06/01 11:07:22;;;;;;;6.50;3.05;;;23.00;53.30;;;;;;5092019;28;20421;-66
2022/06/01 11:10:18;;;;;;;4.22;2.92;;;23.10;53.40;;;;;;5091408;28;20381;-66
2022/06/01 11:12:50;;;;;;;5.40;2.92;;;23.10;53.20;;;;;;5094082;28;20375;-66
2022/06/01 11:15:45;;;;;;;4.25;2.95;;;23.10;53.20;;;;;;5093935;28;20805;-65
2022/06/01 11:18:13;;;;;;;4.30;2.70;;;23.10;53.20;;;;;;5093953;28;20489;-65
2022/06/01 11:20:51;;;;;;;4.32;2.60;;;23.10;53.20;;;;;;5092831;28;20413;-66
2022/06/01 11:23:40;;;;;;;4.43;2.70;;;23.20;52.90;;;;;;5090711;28;20440;-66
2022/06/01 11:26:31;;;;;;;3.10;2.80;;;23.20;53.10;;;;;;5092070;28;20421;-65
2022/06/01 11:29:33;;;;;;;4.60;2.78;;;23.20;52.80;;;;;;5089667;28;20394;-66
2022/06/01 11:32:03;;;;;;;2.83;2.50;;;23.20;52.80;;;;;;5090977;28;20394;-66
2022/06/01 11:35:08;;;;;;;3.83;2.60;;;23.20;52.60;;;;;;5092484;28;20375;-67
2022/06/01 11:37:54;;;;;;;4.10;2.70;;;23.20;52.20;;;;;;5041048;28;20393;-66
2022/06/01 11:40:43;;;;;;;3.20;2.50;;;23.20;52.40;;;;;;5091033;28;20500;-65
2022/06/01 11:43:27;;;;;;;4.85;2.80;;;23.20;52.30;;;;;;5092123;28;20451;-67
2022/06/01 11:46:03;;;;;;;7.10;2.55;;;23.20;52.30;;;;;;5089116;28;20385;-67
2022/06/01 11:48:35;;;;;;;5.15;2.40;;;23.20;52.30;;;;;;5091993;28;20447;-67
2022/06/01 11:51:25;;;;;;;4.03;2.20;;;23.20;52.30;;;;;;5092108;28;20385;-67
2022/06/01 11:54:16;;;;;;;4.27;2.37;;;23.20;52.20;;;;;;5089134;28;20515;-67
2022/06/01 11:56:58;;;;;;;3.53;2.20;;;23.20;52.00;;;;;;5089328;28;20402;-64
2022/06/01 11:59:45;;;;;;;3.65;2.28;;;23.20;52.00;;;;;;5089444;28;20555;-63
2022/06/01 12:02:19;;;;;;;3.65;2.28;;;23.20;52.00;;;;;;5089232;28;21051;-64
2022/06/01 12:04:55;;;;;;;3.53;2.40;;;23.20;51.80;;;;;;5093195;28;20385;-65
2022/06/01 12:07:20;;;;;;;2.83;2.20;;;23.20;51.70;;;;;;5092218;28;20488;-63
2022/06/01 12:10:15;;;;;;;2.90;2.60;;;23.20;51.80;;;;;;5095009;28;20392;-65
2022/06/01 12:12:57;;;;;;;2.78;2.33;;;23.20;51.70;;;;;;5058732;28;20402;-64
2022/06/01 12:15:38;;;;;;;2.50;2.20;;;23.20;51.60;;;;;;5092452;28;20459;-64
2022/06/01 12:18:06;;;;;;;3.47;2.40;;;23.20;51.70;;;;;;5092514;28;20373;-65
2022/06/01 12:20:32;;;;;;;3.33;2.20;;;23.20;51.60;;;;;;5091169;28;20768;-65
2022/06/01 12:28:51;;;;;;;2.63;2.33;;;23.20;51.60;;;;;;5092542;28;20429;-66
2022/06/01 12:31:21;;;;;;;4.80;2.20;;;23.20;51.50;;;;;;5092762;28;20746;-65
2022/06/01 12:34:02;;;;;;;3.05;2.15;;;23.20;51.50;;;;;;5092336;28;20432;-65
2022/06/01 12:36:37;;;;;;;2.50;2.30;;;23.20;51.40;;;;;;5092208;28;20494;-65
2022/06/01 12:39:08;;;;;;;2.50;2.30;;;23.20;51.40;;;;;;5091939;28;20398;-65
2022/06/01 12:41:36;;;;;;;2.83;2.58;;;23.20;51.40;;;;;;5091962;28;20385;-65
2022/06/01 12:44:08;;;;;;;3.33;2.70;;;23.20;51.30;;;;;;5092444;28;20469;-64
2022/06/01 12:46:39;;;;;;;4.32;2.35;;;23.20;51.40;;;;;;5090872;28;20413;-64
2022/06/01 12:49:24;;;;;;;4.50;2.53;;;23.20;51.50;;;;;;5091885;28;20402;-64
2022/06/01 12:52:01;;;;;;;4.30;2.30;;;23.20;51.90;;;;;;5089384;28;20381;-64
2022/06/01 12:54:33;;;;;;;4.27;2.30;;;23.20;52.50;;;;;;5089089;28;20409;-64
2022/06/01 12:57:03;;;;;;;5.07;2.80;;;23.20;51.80;;;;;;5090690;28;20420;-64
2022/06/01 12:59:32;;;;;;;6.25;2.70;;;23.20;51.90;;;;;;5091470;28;20398;-64
2022/06/01 13:02:00;;;;;;;6.22;3.28;;;23.20;51.70;;;;;;5092667;28;20390;-64
2022/06/01 13:04:27;;;;;;;9.68;4.50;;;23.30;52.10;;;;;;5092998;28;20394;-65
2022/06/01 13:06:54;;;;;;;6.13;3.50;;;23.30;52.90;;;;;;5091178;28;20410;-64
2022/06/01 13:09:28;;;;;;;7.47;3.87;;;23.30;52.90;;;;;;5092762;28;20418;-64
2022/06/01 13:12:06;;;;;;;6.25;3.42;;;23.30;53.50;;;;;;5091376;28;20390;-64
2022/06/01 13:14:34;;;;;;;7.72;3.58;;;23.40;52.80;;;;;;5090575;28;20473;-64
2022/06/01 13:17:25;;;;;;;4.95;2.88;;;23.40;53.30;;;;;;5089703;28;20402;-65
2022/06/01 13:19:59;;;;;;;5.78;3.33;;;23.40;52.70;;;;;;5091778;28;20393;-64
2022/06/01 13:22:30;;;;;;;5.10;3.22;;;23.50;53.70;;;;;;5089124;28;20498;-65
2022/06/01 13:25:05;;;;;;;6.80;3.00;;;23.50;53.10;;;;;;5092594;28;20417;-64
2022/06/01 13:27:33;;;;;;;6.97;3.20;;;23.40;52.60;;;;;;5090856;28;20508;-64
2022/06/01 13:30:00;;;;;;;7.80;3.80;;;23.50;52.80;;;;;;5090103;28;20386;-64